sensor_id;sensor_type;location;lat;lon;timestamp;P1;durP1;ratioP1;P2;durP2;ratioP2
48813;SDS011;34634;44.108;3.074;2023-05-01T00:00:19;2.28;;;1.63;;
48813;SDS011;34634;44.108;3.074;2023-05-01T00:02:45;3.55;;;1.88;;
48813;SDS011;34634;44.108;3.074;2023-05-01T00:05:12;4.40;;;1.63;;
48813;SDS011;34634;44.108;3.074;2023-05-01T00:07:38;2.70;;;1.55;;
48813;SDS011;34634;44.108;3.074;2023-05-01T00:10:05;2.60;;;1.95;;
48813;SDS011;34634;44.108;3.074;2023-05-01T00:12:31;5.32;;;1.77;;
48813;SDS011;34634;44.108;3.074;2023-05-01T00:14:58;2.40;;;2.03;;
48813;SDS011;34634;44.108;3.074;2023-05-01T00:17:24;2.92;;;1.88;;
48813;SDS011;34634;44.108;3.074;2023-05-01T00:19:52;2.10;;;1.83;;
48813;SDS011;34634;44.108;3.074;2023-05-01T00:22:19;2.78;;;1.75;;
48813;SDS011;34634;44.108;3.074;2023-05-01T00:24:45;4.43;;;2.00;;
48813;SDS011;34634;44.108;3.074;2023-05-01T00:27:14;3.00;;;1.90;;
48813;SDS011;34634;44.108;3.074;2023-05-01T00:29:41;2.20;;;1.95;;
48813;SDS011;34634;44.108;3.074;2023-05-01T00:32:07;1.77;;;1.50;;
48813;SDS011;34634;44.108;3.074;2023-05-01T00:34:34;3.97;;;2.15;;
48813;SDS011;34634;44.108;3.074;2023-05-01T00:37:00;4.05;;;1.65;;
48813;SDS011;34634;44.108;3.074;2023-05-01T00:39:27;4.05;;;1.90;;
48813;SDS011;34634;44.108;3.074;2023-05-01T00:41:53;5.25;;;2.22;;
48813;SDS011;34634;44.108;3.074;2023-05-01T00:44:20;3.33;;;1.80;;
48813;SDS011;34634;44.108;3.074;2023-05-01T00:46:46;2.55;;;1.75;;
48813;SDS011;34634;44.108;3.074;2023-05-01T00:49:13;4.43;;;2.33;;
48813;SDS011;34634;44.108;3.074;2023-05-01T00:51:39;2.13;;;1.80;;
48813;SDS011;34634;44.108;3.074;2023-05-01T00:54:05;3.05;;;1.90;;
48813;SDS011;34634;44.108;3.074;2023-05-01T00:56:32;4.00;;;2.10;;
48813;SDS011;34634;44.108;3.074;2023-05-01T00:58:58;2.85;;;2.08;;
48813;SDS011;34634;44.108;3.074;2023-05-01T01:01:25;3.00;;;1.90;;
48813;SDS011;34634;44.108;3.074;2023-05-01T01:03:53;3.47;;;2.15;;
48813;SDS011;34634;44.108;3.074;2023-05-01T01:08:48;3.80;;;1.95;;
48813;SDS011;34634;44.108;3.074;2023-05-01T01:11:19;2.97;;;1.60;;
48813;SDS011;34634;44.108;3.074;2023-05-01T01:13:51;3.33;;;2.10;;
48813;SDS011;34634;44.108;3.074;2023-05-01T01:16:22;3.33;;;1.95;;
48813;SDS011;34634;44.108;3.074;2023-05-01T01:21:22;3.95;;;1.75;;
48813;SDS011;34634;44.108;3.074;2023-05-01T01:34:24;2.00;;;1.80;;
48813;SDS011;34634;44.108;3.074;2023-05-01T01:36:58;4.30;;;1.85;;
48813;SDS011;34634;44.108;3.074;2023-05-01T01:42:03;2.17;;;1.85;;
48813;SDS011;34634;44.108;3.074;2023-05-01T01:44:36;6.03;;;2.35;;
48813;SDS011;34634;44.108;3.074;2023-05-01T01:47:04;2.55;;;1.98;;
48813;SDS011;34634;44.108;3.074;2023-05-01T01:49:32;3.20;;;1.88;;
48813;SDS011;34634;44.108;3.074;2023-05-01T01:52:00;4.82;;;1.88;;
48813;SDS011;34634;44.108;3.074;2023-05-01T01:54:47;2.30;;;2.08;;
48813;SDS011;34634;44.108;3.074;2023-05-01T01:57:16;8.77;;;2.15;;
48813;SDS011;34634;44.108;3.074;2023-05-01T01:59:43;3.55;;;2.00;;
48813;SDS011;34634;44.108;3.074;2023-05-01T02:02:11;3.45;;;2.28;;
48813;SDS011;34634;44.108;3.074;2023-05-01T02:04:38;4.30;;;2.33;;
48813;SDS011;34634;44.108;3.074;2023-05-01T02:07:07;2.95;;;1.90;;
48813;SDS011;34634;44.108;3.074;2023-05-01T02:09:33;4.57;;;2.25;;
48813;SDS011;34634;44.108;3.074;2023-05-01T02:12:01;6.15;;;2.30;;
48813;SDS011;34634;44.108;3.074;2023-05-01T02:14:28;3.25;;;1.95;;
48813;SDS011;34634;44.108;3.074;2023-05-01T02:16:55;2.15;;;1.90;;
48813;SDS011;34634;44.108;3.074;2023-05-01T02:19:23;3.17;;;2.10;;
48813;SDS011;34634;44.108;3.074;2023-05-01T02:21:50;3.05;;;2.05;;
48813;SDS011;34634;44.108;3.074;2023-05-01T02:24:17;4.88;;;2.65;;
48813;SDS011;34634;44.108;3.074;2023-05-01T02:26:48;2.53;;;2.13;;
48813;SDS011;34634;44.108;3.074;2023-05-01T02:29:15;4.22;;;2.20;;
48813;SDS011;34634;44.108;3.074;2023-05-01T02:31:41;2.83;;;2.13;;
48813;SDS011;34634;44.108;3.074;2023-05-01T02:34:07;2.30;;;2.10;;
48813;SDS011;34634;44.108;3.074;2023-05-01T02:36:34;4.78;;;2.42;;
48813;SDS011;34634;44.108;3.074;2023-05-01T02:39:00;5.15;;;2.25;;
48813;SDS011;34634;44.108;3.074;2023-05-01T02:41:27;4.10;;;2.13;;
48813;SDS011;34634;44.108;3.074;2023-05-01T02:43:55;3.45;;;2.00;;
48813;SDS011;34634;44.108;3.074;2023-05-01T02:46:23;4.78;;;2.17;;
48813;SDS011;34634;44.108;3.074;2023-05-01T02:48:50;4.65;;;2.38;;
48813;SDS011;34634;44.108;3.074;2023-05-01T02:51:18;2.50;;;1.90;;
48813;SDS011;34634;44.108;3.074;2023-05-01T02:53:46;3.42;;;2.40;;
48813;SDS011;34634;44.108;3.074;2023-05-01T02:56:12;4.90;;;2.40;;
48813;SDS011;34634;44.108;3.074;2023-05-01T02:58:39;3.33;;;2.35;;
48813;SDS011;34634;44.108;3.074;2023-05-01T03:01:05;4.35;;;2.40;;
48813;SDS011;34634;44.108;3.074;2023-05-01T03:03:31;3.20;;;2.45;;
48813;SDS011;34634;44.108;3.074;2023-05-01T03:05:58;3.47;;;2.65;;
48813;SDS011;34634;44.108;3.074;2023-05-01T03:08:24;4.22;;;2.80;;
48813;SDS011;34634;44.108;3.074;2023-05-01T03:10:51;3.80;;;2.78;;
48813;SDS011;34634;44.108;3.074;2023-05-01T03:13:17;3.10;;;2.80;;
48813;SDS011;34634;44.108;3.074;2023-05-01T03:15:44;5.70;;;2.97;;
48813;SDS011;34634;44.108;3.074;2023-05-01T03:18:10;9.05;;;3.38;;
48813;SDS011;34634;44.108;3.074;2023-05-01T03:20:37;5.65;;;3.20;;
48813;SDS011;34634;44.108;3.074;2023-05-01T03:23:03;5.47;;;2.92;;
48813;SDS011;34634;44.108;3.074;2023-05-01T03:25:30;6.82;;;2.17;;
48813;SDS011;34634;44.108;3.074;2023-05-01T03:27:57;4.25;;;2.63;;
48813;SDS011;34634;44.108;3.074;2023-05-01T03:30:23;6.07;;;2.45;;
48813;SDS011;34634;44.108;3.074;2023-05-01T03:32:50;5.78;;;2.80;;
48813;SDS011;34634;44.108;3.074;2023-05-01T03:35:16;3.42;;;2.92;;
48813;SDS011;34634;44.108;3.074;2023-05-01T03:37:42;4.05;;;2.30;;
48813;SDS011;34634;44.108;3.074;2023-05-01T03:40:09;5.50;;;2.50;;
48813;SDS011;34634;44.108;3.074;2023-05-01T03:42:37;5.47;;;2.47;;
48813;SDS011;34634;44.108;3.074;2023-05-01T03:45:04;6.18;;;2.75;;
48813;SDS011;34634;44.108;3.074;2023-05-01T03:47:30;4.10;;;2.38;;
48813;SDS011;34634;44.108;3.074;2023-05-01T03:49:56;3.42;;;2.45;;
48813;SDS011;34634;44.108;3.074;2023-05-01T03:52:23;3.53;;;2.75;;
48813;SDS011;34634;44.108;3.074;2023-05-01T03:54:49;4.47;;;2.85;;
48813;SDS011;34634;44.108;3.074;2023-05-01T03:57:15;3.63;;;2.67;;
48813;SDS011;34634;44.108;3.074;2023-05-01T03:59:42;6.43;;;2.75;;
48813;SDS011;34634;44.108;3.074;2023-05-01T04:02:08;3.50;;;2.50;;
48813;SDS011;34634;44.108;3.074;2023-05-01T04:04:34;4.03;;;2.55;;
48813;SDS011;34634;44.108;3.074;2023-05-01T04:07:01;7.10;;;3.03;;
48813;SDS011;34634;44.108;3.074;2023-05-01T04:09:27;4.45;;;3.22;;
48813;SDS011;34634;44.108;3.074;2023-05-01T04:11:56;3.58;;;2.95;;
48813;SDS011;34634;44.108;3.074;2023-05-01T04:14:23;4.03;;;3.15;;
48813;SDS011;34634;44.108;3.074;2023-05-01T04:16:49;4.45;;;2.85;;
48813;SDS011;34634;44.108;3.074;2023-05-01T04:19:15;3.40;;;3.03;;
48813;SDS011;34634;44.108;3.074;2023-05-01T04:21:42;5.22;;;3.17;;
48813;SDS011;34634;44.108;3.074;2023-05-01T04:24:08;4.95;;;2.63;;
48813;SDS011;34634;44.108;3.074;2023-05-01T04:26:35;3.13;;;2.72;;
48813;SDS011;34634;44.108;3.074;2023-05-01T04:29:01;9.98;;;3.47;;
48813;SDS011;34634;44.108;3.074;2023-05-01T04:31:27;4.65;;;3.03;;
48813;SDS011;34634;44.108;3.074;2023-05-01T04:33:53;4.43;;;2.90;;
48813;SDS011;34634;44.108;3.074;2023-05-01T04:36:20;3.05;;;2.70;;
48813;SDS011;34634;44.108;3.074;2023-05-01T04:38:47;5.20;;;3.28;;
48813;SDS011;34634;44.108;3.074;2023-05-01T04:41:13;4.38;;;2.90;;
48813;SDS011;34634;44.108;3.074;2023-05-01T04:43:40;3.90;;;2.95;;
48813;SDS011;34634;44.108;3.074;2023-05-01T04:46:06;6.93;;;2.92;;
48813;SDS011;34634;44.108;3.074;2023-05-01T04:48:32;4.28;;;2.97;;
48813;SDS011;34634;44.108;3.074;2023-05-01T04:50:58;6.10;;;2.90;;
48813;SDS011;34634;44.108;3.074;2023-05-01T04:53:25;5.22;;;2.88;;
48813;SDS011;34634;44.108;3.074;2023-05-01T04:55:51;7.70;;;3.08;;
48813;SDS011;34634;44.108;3.074;2023-05-01T04:58:18;4.97;;;2.90;;
48813;SDS011;34634;44.108;3.074;2023-05-01T05:00:44;7.60;;;3.08;;
48813;SDS011;34634;44.108;3.074;2023-05-01T05:03:10;14.30;;;3.22;;
48813;SDS011;34634;44.108;3.074;2023-05-01T05:05:37;5.28;;;3.58;;
48813;SDS011;34634;44.108;3.074;2023-05-01T05:08:03;4.38;;;2.85;;
48813;SDS011;34634;44.108;3.074;2023-05-01T05:10:30;3.65;;;2.97;;
48813;SDS011;34634;44.108;3.074;2023-05-01T05:12:57;5.28;;;3.17;;
48813;SDS011;34634;44.108;3.074;2023-05-01T05:15:23;5.57;;;3.17;;
48813;SDS011;34634;44.108;3.074;2023-05-01T05:17:50;4.18;;;3.20;;
48813;SDS011;34634;44.108;3.074;2023-05-01T05:20:16;5.30;;;3.35;;
48813;SDS011;34634;44.108;3.074;2023-05-01T05:22:42;5.13;;;2.70;;
48813;SDS011;34634;44.108;3.074;2023-05-01T05:25:09;3.85;;;2.85;;
48813;SDS011;34634;44.108;3.074;2023-05-01T05:27:35;4.55;;;2.75;;
48813;SDS011;34634;44.108;3.074;2023-05-01T05:30:05;4.35;;;3.00;;
48813;SDS011;34634;44.108;3.074;2023-05-01T05:32:32;3.53;;;3.08;;
48813;SDS011;34634;44.108;3.074;2023-05-01T05:34:59;6.60;;;3.10;;
48813;SDS011;34634;44.108;3.074;2023-05-01T05:37:25;3.40;;;3.10;;
48813;SDS011;34634;44.108;3.074;2023-05-01T05:39:51;3.38;;;2.70;;
48813;SDS011;34634;44.108;3.074;2023-05-01T05:42:18;8.07;;;2.72;;
48813;SDS011;34634;44.108;3.074;2023-05-01T05:44:44;6.82;;;2.92;;
48813;SDS011;34634;44.108;3.074;2023-05-01T05:47:11;5.63;;;3.03;;
48813;SDS011;34634;44.108;3.074;2023-05-01T05:49:37;3.15;;;2.85;;
48813;SDS011;34634;44.108;3.074;2023-05-01T05:52:03;5.00;;;3.15;;
48813;SDS011;34634;44.108;3.074;2023-05-01T05:54:30;4.35;;;2.78;;
48813;SDS011;34634;44.108;3.074;2023-05-01T05:56:56;2.70;;;2.50;;
48813;SDS011;34634;44.108;3.074;2023-05-01T05:59:22;4.88;;;2.53;;
48813;SDS011;34634;44.108;3.074;2023-05-01T06:01:49;3.47;;;2.45;;
48813;SDS011;34634;44.108;3.074;2023-05-01T06:04:15;2.53;;;2.08;;
48813;SDS011;34634;44.108;3.074;2023-05-01T06:06:41;2.33;;;2.05;;
48813;SDS011;34634;44.108;3.074;2023-05-01T06:09:08;3.30;;;2.15;;
48813;SDS011;34634;44.108;3.074;2023-05-01T06:11:35;4.38;;;1.92;;
48813;SDS011;34634;44.108;3.074;2023-05-01T06:14:01;3.55;;;2.33;;
48813;SDS011;34634;44.108;3.074;2023-05-01T06:16:28;3.33;;;2.38;;
48813;SDS011;34634;44.108;3.074;2023-05-01T06:18:54;2.35;;;2.15;;
48813;SDS011;34634;44.108;3.074;2023-05-01T06:21:21;1.88;;;1.65;;
48813;SDS011;34634;44.108;3.074;2023-05-01T06:23:47;2.65;;;2.22;;
48813;SDS011;34634;44.108;3.074;2023-05-01T06:26:13;2.53;;;2.30;;
48813;SDS011;34634;44.108;3.074;2023-05-01T06:28:40;2.72;;;1.80;;
48813;SDS011;34634;44.108;3.074;2023-05-01T06:31:06;2.38;;;1.85;;
48813;SDS011;34634;44.108;3.074;2023-05-01T06:33:32;5.80;;;2.03;;
48813;SDS011;34634;44.108;3.074;2023-05-01T06:35:59;1.85;;;1.75;;
48813;SDS011;34634;44.108;3.074;2023-05-01T06:38:25;2.72;;;1.80;;
48813;SDS011;34634;44.108;3.074;2023-05-01T06:40:52;2.42;;;2.00;;
48813;SDS011;34634;44.108;3.074;2023-05-01T06:43:18;5.18;;;2.10;;
48813;SDS011;34634;44.108;3.074;2023-05-01T06:45:44;5.93;;;2.20;;
48813;SDS011;34634;44.108;3.074;2023-05-01T06:48:11;4.05;;;2.08;;
48813;SDS011;34634;44.108;3.074;2023-05-01T06:50:37;2.70;;;2.30;;
48813;SDS011;34634;44.108;3.074;2023-05-01T06:53:03;3.78;;;2.10;;
48813;SDS011;34634;44.108;3.074;2023-05-01T06:55:30;3.78;;;2.15;;
48813;SDS011;34634;44.108;3.074;2023-05-01T06:57:57;2.92;;;2.28;;
48813;SDS011;34634;44.108;3.074;2023-05-01T07:00:23;2.50;;;2.30;;
48813;SDS011;34634;44.108;3.074;2023-05-01T07:02:50;2.85;;;2.08;;
48813;SDS011;34634;44.108;3.074;2023-05-01T07:05:16;2.80;;;2.55;;
48813;SDS011;34634;44.108;3.074;2023-05-01T07:07:42;3.13;;;2.20;;
48813;SDS011;34634;44.108;3.074;2023-05-01T07:10:09;2.60;;;2.40;;
48813;SDS011;34634;44.108;3.074;2023-05-01T07:12:35;2.50;;;2.30;;
48813;SDS011;34634;44.108;3.074;2023-05-01T07:15:02;3.25;;;2.30;;
48813;SDS011;34634;44.108;3.074;2023-05-01T07:17:28;3.25;;;2.60;;
48813;SDS011;34634;44.108;3.074;2023-05-01T07:19:54;6.00;;;2.50;;
48813;SDS011;34634;44.108;3.074;2023-05-01T07:22:21;3.05;;;2.80;;
48813;SDS011;34634;44.108;3.074;2023-05-01T07:24:47;5.15;;;3.00;;
48813;SDS011;34634;44.108;3.074;2023-05-01T07:27:13;3.65;;;2.83;;
48813;SDS011;34634;44.108;3.074;2023-05-01T07:29:40;3.47;;;3.03;;
48813;SDS011;34634;44.108;3.074;2023-05-01T07:32:06;6.68;;;3.40;;
48813;SDS011;34634;44.108;3.074;2023-05-01T07:34:32;5.30;;;3.25;;
48813;SDS011;34634;44.108;3.074;2023-05-01T07:36:59;4.32;;;3.90;;
48813;SDS011;34634;44.108;3.074;2023-05-01T07:39:25;3.97;;;3.50;;
48813;SDS011;34634;44.108;3.074;2023-05-01T07:41:51;5.05;;;4.10;;
48813;SDS011;34634;44.108;3.074;2023-05-01T07:44:17;5.75;;;3.85;;
48813;SDS011;34634;44.108;3.074;2023-05-01T07:46:44;5.15;;;4.10;;
48813;SDS011;34634;44.108;3.074;2023-05-01T07:49:11;3.78;;;3.47;;
48813;SDS011;34634;44.108;3.074;2023-05-01T07:51:37;3.90;;;3.50;;
48813;SDS011;34634;44.108;3.074;2023-05-01T07:54:04;4.68;;;3.53;;
48813;SDS011;34634;44.108;3.074;2023-05-01T07:56:30;4.35;;;3.95;;
48813;SDS011;34634;44.108;3.074;2023-05-01T07:58:56;3.92;;;3.45;;
48813;SDS011;34634;44.108;3.074;2023-05-01T08:01:23;5.30;;;3.70;;
48813;SDS011;34634;44.108;3.074;2023-05-01T08:03:49;4.40;;;3.40;;
48813;SDS011;34634;44.108;3.074;2023-05-01T08:06:16;6.20;;;3.20;;
48813;SDS011;34634;44.108;3.074;2023-05-01T08:08:42;5.07;;;3.35;;
48813;SDS011;34634;44.108;3.074;2023-05-01T08:11:08;6.07;;;3.20;;
48813;SDS011;34634;44.108;3.074;2023-05-01T08:13:35;4.53;;;3.58;;
48813;SDS011;34634;44.108;3.074;2023-05-01T08:16:01;6.25;;;4.35;;
48813;SDS011;34634;44.108;3.074;2023-05-01T08:18:28;4.35;;;3.55;;
48813;SDS011;34634;44.108;3.074;2023-05-01T08:20:55;3.70;;;3.30;;
48813;SDS011;34634;44.108;3.074;2023-05-01T08:23:21;5.18;;;4.00;;
48813;SDS011;34634;44.108;3.074;2023-05-01T08:25:50;6.30;;;3.40;;
48813;SDS011;34634;44.108;3.074;2023-05-01T08:28:16;4.00;;;3.55;;
48813;SDS011;34634;44.108;3.074;2023-05-01T08:30:45;5.97;;;3.67;;
48813;SDS011;34634;44.108;3.074;2023-05-01T08:33:13;4.57;;;3.50;;
48813;SDS011;34634;44.108;3.074;2023-05-01T08:35:40;6.10;;;3.75;;
48813;SDS011;34634;44.108;3.074;2023-05-01T08:38:06;4.57;;;3.80;;
48813;SDS011;34634;44.108;3.074;2023-05-01T08:40:35;5.28;;;3.90;;
48813;SDS011;34634;44.108;3.074;2023-05-01T08:43:02;4.43;;;2.67;;
48813;SDS011;34634;44.108;3.074;2023-05-01T08:45:32;4.10;;;2.70;;
48813;SDS011;34634;44.108;3.074;2023-05-01T08:48:02;3.58;;;2.30;;
48813;SDS011;34634;44.108;3.074;2023-05-01T08:50:30;2.35;;;2.08;;
48813;SDS011;34634;44.108;3.074;2023-05-01T08:52:56;1.83;;;1.63;;
48813;SDS011;34634;44.108;3.074;2023-05-01T08:55:23;1.67;;;1.58;;
48813;SDS011;34634;44.108;3.074;2023-05-01T08:57:51;2.40;;;1.67;;
48813;SDS011;34634;44.108;3.074;2023-05-01T09:00:18;1.83;;;1.48;;
48813;SDS011;34634;44.108;3.074;2023-05-01T09:02:46;1.17;;;1.08;;
48813;SDS011;34634;44.108;3.074;2023-05-01T09:05:14;2.38;;;1.40;;
48813;SDS011;34634;44.108;3.074;2023-05-01T09:07:41;1.30;;;1.20;;
48813;SDS011;34634;44.108;3.074;2023-05-01T09:10:09;1.77;;;1.08;;
48813;SDS011;34634;44.108;3.074;2023-05-01T09:12:36;2.38;;;1.10;;
48813;SDS011;34634;44.108;3.074;2023-05-01T09:15:03;3.10;;;1.00;;
48813;SDS011;34634;44.108;3.074;2023-05-01T09:17:31;1.20;;;1.10;;
48813;SDS011;34634;44.108;3.074;2023-05-01T09:19:57;1.30;;;1.08;;
48813;SDS011;34634;44.108;3.074;2023-05-01T09:22:24;1.55;;;1.27;;
48813;SDS011;34634;44.108;3.074;2023-05-01T09:24:50;2.45;;;1.60;;
48813;SDS011;34634;44.108;3.074;2023-05-01T09:27:17;1.98;;;1.75;;
48813;SDS011;34634;44.108;3.074;2023-05-01T09:29:44;2.35;;;1.45;;
48813;SDS011;34634;44.108;3.074;2023-05-01T09:32:13;1.73;;;1.42;;
48813;SDS011;34634;44.108;3.074;2023-05-01T09:34:40;1.42;;;1.30;;
48813;SDS011;34634;44.108;3.074;2023-05-01T09:37:09;2.95;;;1.67;;
48813;SDS011;34634;44.108;3.074;2023-05-01T09:39:36;2.20;;;2.00;;
48813;SDS011;34634;44.108;3.074;2023-05-01T09:42:03;2.08;;;1.83;;
48813;SDS011;34634;44.108;3.074;2023-05-01T09:44:29;1.75;;;1.65;;
48813;SDS011;34634;44.108;3.074;2023-05-01T09:46:56;2.00;;;1.90;;
48813;SDS011;34634;44.108;3.074;2023-05-01T09:49:42;2.22;;;2.03;;
48813;SDS011;34634;44.108;3.074;2023-05-01T09:52:11;2.22;;;2.00;;
48813;SDS011;34634;44.108;3.074;2023-05-01T09:54:38;2.28;;;1.65;;
48813;SDS011;34634;44.108;3.074;2023-05-01T09:57:05;2.38;;;1.75;;
48813;SDS011;34634;44.108;3.074;2023-05-01T09:59:32;2.10;;;1.80;;
48813;SDS011;34634;44.108;3.074;2023-05-01T10:01:59;2.30;;;2.10;;
48813;SDS011;34634;44.108;3.074;2023-05-01T10:04:32;2.28;;;1.95;;
48813;SDS011;34634;44.108;3.074;2023-05-01T10:07:14;2.47;;;1.92;;
48813;SDS011;34634;44.108;3.074;2023-05-01T10:09:40;3.75;;;2.15;;
48813;SDS011;34634;44.108;3.074;2023-05-01T10:12:06;2.47;;;2.20;;
48813;SDS011;34634;44.108;3.074;2023-05-01T10:14:33;2.22;;;1.85;;
48813;SDS011;34634;44.108;3.074;2023-05-01T10:17:15;2.67;;;1.88;;
48813;SDS011;34634;44.108;3.074;2023-05-01T10:19:44;1.83;;;1.63;;
48813;SDS011;34634;44.108;3.074;2023-05-01T10:22:11;2.35;;;2.05;;
48813;SDS011;34634;44.108;3.074;2023-05-01T10:24:37;2.47;;;1.80;;
48813;SDS011;34634;44.108;3.074;2023-05-01T10:27:07;2.17;;;1.88;;
48813;SDS011;34634;44.108;3.074;2023-05-01T10:29:35;1.88;;;1.75;;
48813;SDS011;34634;44.108;3.074;2023-05-01T10:32:01;2.42;;;1.60;;
48813;SDS011;34634;44.108;3.074;2023-05-01T10:34:29;2.05;;;1.67;;
48813;SDS011;34634;44.108;3.074;2023-05-01T10:36:57;2.22;;;1.63;;
48813;SDS011;34634;44.108;3.074;2023-05-01T10:39:29;1.67;;;1.58;;
48813;SDS011;34634;44.108;3.074;2023-05-01T10:42:02;1.73;;;1.50;;
48813;SDS011;34634;44.108;3.074;2023-05-01T10:44:28;2.10;;;1.47;;
48813;SDS011;34634;44.108;3.074;2023-05-01T10:46:55;1.35;;;1.25;;
48813;SDS011;34634;44.108;3.074;2023-05-01T10:49:22;1.70;;;1.42;;
48813;SDS011;34634;44.108;3.074;2023-05-01T10:54:24;1.20;;;1.20;;
48813;SDS011;34634;44.108;3.074;2023-05-01T10:56:51;1.23;;;1.23;;
48813;SDS011;34634;44.108;3.074;2023-05-01T10:59:17;1.63;;;1.23;;
48813;SDS011;34634;44.108;3.074;2023-05-01T11:01:45;1.58;;;1.48;;
48813;SDS011;34634;44.108;3.074;2023-05-01T11:09:39;1.50;;;1.40;;
48813;SDS011;34634;44.108;3.074;2023-05-01T11:12:06;1.20;;;1.10;;
48813;SDS011;34634;44.108;3.074;2023-05-01T11:20:03;4.85;;;1.20;;
48813;SDS011;34634;44.108;3.074;2023-05-01T11:22:30;1.23;;;1.10;;
48813;SDS011;34634;44.108;3.074;2023-05-01T11:24:56;1.65;;;0.98;;
48813;SDS011;34634;44.108;3.074;2023-05-01T11:27:23;0.98;;;0.90;;
48813;SDS011;34634;44.108;3.074;2023-05-01T11:29:49;1.70;;;0.93;;
48813;SDS011;34634;44.108;3.074;2023-05-01T11:32:17;1.10;;;0.90;;
48813;SDS011;34634;44.108;3.074;2023-05-01T11:34:43;1.80;;;1.23;;
48813;SDS011;34634;44.108;3.074;2023-05-01T11:37:11;1.73;;;0.70;;
48813;SDS011;34634;44.108;3.074;2023-05-01T11:39:37;1.17;;;0.95;;
48813;SDS011;34634;44.108;3.074;2023-05-01T11:42:11;0.93;;;0.80;;
48813;SDS011;34634;44.108;3.074;2023-05-01T11:44:37;1.58;;;0.90;;
48813;SDS011;34634;44.108;3.074;2023-05-01T11:47:04;1.58;;;0.80;;
48813;SDS011;34634;44.108;3.074;2023-05-01T11:49:31;1.10;;;0.88;;
48813;SDS011;34634;44.108;3.074;2023-05-01T11:51:58;1.10;;;1.00;;
48813;SDS011;34634;44.108;3.074;2023-05-01T11:54:25;2.60;;;0.70;;
48813;SDS011;34634;44.108;3.074;2023-05-01T11:56:57;1.08;;;0.77;;
48813;SDS011;34634;44.108;3.074;2023-05-01T11:59:25;0.82;;;0.75;;
48813;SDS011;34634;44.108;3.074;2023-05-01T12:01:51;0.88;;;0.70;;
48813;SDS011;34634;44.108;3.074;2023-05-01T12:04:25;0.90;;;0.90;;
48813;SDS011;34634;44.108;3.074;2023-05-01T12:06:51;0.70;;;0.70;;
48813;SDS011;34634;44.108;3.074;2023-05-01T12:09:19;0.80;;;0.70;;
48813;SDS011;34634;44.108;3.074;2023-05-01T12:11:47;0.70;;;0.70;;
48813;SDS011;34634;44.108;3.074;2023-05-01T12:14:14;5.15;;;0.93;;
48813;SDS011;34634;44.108;3.074;2023-05-01T12:16:40;1.33;;;0.68;;
48813;SDS011;34634;44.108;3.074;2023-05-01T12:19:07;1.58;;;0.60;;
48813;SDS011;34634;44.108;3.074;2023-05-01T12:21:34;0.70;;;0.70;;
48813;SDS011;34634;44.108;3.074;2023-05-01T12:24:14;0.80;;;0.80;;
48813;SDS011;34634;44.108;3.074;2023-05-01T12:26:42;0.90;;;0.75;;
48813;SDS011;34634;44.108;3.074;2023-05-01T12:29:08;1.02;;;0.90;;
48813;SDS011;34634;44.108;3.074;2023-05-01T12:31:35;0.77;;;0.77;;
48813;SDS011;34634;44.108;3.074;2023-05-01T12:34:03;0.88;;;0.80;;
48813;SDS011;34634;44.108;3.074;2023-05-01T12:36:31;1.48;;;1.00;;
48813;SDS011;34634;44.108;3.074;2023-05-01T12:41:45;2.00;;;0.77;;
48813;SDS011;34634;44.108;3.074;2023-05-01T12:44:25;1.52;;;0.80;;
48813;SDS011;34634;44.108;3.074;2023-05-01T12:46:53;0.98;;;0.60;;
48813;SDS011;34634;44.108;3.074;2023-05-01T12:49:20;0.70;;;0.70;;
48813;SDS011;34634;44.108;3.074;2023-05-01T12:51:46;2.40;;;0.73;;
48813;SDS011;34634;44.108;3.074;2023-05-01T12:56:45;2.00;;;0.85;;
48813;SDS011;34634;44.108;3.074;2023-05-01T12:59:24;1.95;;;0.80;;
48813;SDS011;34634;44.108;3.074;2023-05-01T13:02:01;2.55;;;0.80;;
48813;SDS011;34634;44.108;3.074;2023-05-01T13:04:28;0.73;;;0.73;;
48813;SDS011;34634;44.108;3.074;2023-05-01T13:06:55;1.52;;;1.02;;
48813;SDS011;34634;44.108;3.074;2023-05-01T13:09:22;2.28;;;1.00;;
48813;SDS011;34634;44.108;3.074;2023-05-01T13:12:09;1.27;;;0.77;;
48813;SDS011;34634;44.108;3.074;2023-05-01T13:14:35;1.00;;;0.77;;
48813;SDS011;34634;44.108;3.074;2023-05-01T13:17:04;1.05;;;0.80;;
48813;SDS011;34634;44.108;3.074;2023-05-01T13:19:31;3.00;;;0.80;;
48813;SDS011;34634;44.108;3.074;2023-05-01T13:21:57;0.55;;;0.55;;
48813;SDS011;34634;44.108;3.074;2023-05-01T13:24:45;1.08;;;0.80;;
48813;SDS011;34634;44.108;3.074;2023-05-01T13:27:11;1.52;;;0.80;;
48813;SDS011;34634;44.108;3.074;2023-05-01T13:29:37;0.60;;;0.60;;
48813;SDS011;34634;44.108;3.074;2023-05-01T13:32:08;0.75;;;0.57;;
48813;SDS011;34634;44.108;3.074;2023-05-01T13:34:35;1.42;;;0.60;;
48813;SDS011;34634;44.108;3.074;2023-05-01T13:37:01;0.98;;;0.60;;
48813;SDS011;34634;44.108;3.074;2023-05-01T13:39:28;0.82;;;0.80;;
48813;SDS011;34634;44.108;3.074;2023-05-01T13:41:54;0.88;;;0.70;;
48813;SDS011;34634;44.108;3.074;2023-05-01T13:44:21;1.33;;;0.70;;
48813;SDS011;34634;44.108;3.074;2023-05-01T13:46:48;3.38;;;0.90;;
48813;SDS011;34634;44.108;3.074;2023-05-01T13:49:14;0.70;;;0.70;;
48813;SDS011;34634;44.108;3.074;2023-05-01T13:51:43;0.50;;;0.50;;
48813;SDS011;34634;44.108;3.074;2023-05-01T13:54:10;2.25;;;0.73;;
48813;SDS011;34634;44.108;3.074;2023-05-01T13:56:38;2.72;;;0.60;;
48813;SDS011;34634;44.108;3.074;2023-05-01T13:59:05;0.68;;;0.50;;
48813;SDS011;34634;44.108;3.074;2023-05-01T14:01:35;0.60;;;0.60;;
48813;SDS011;34634;44.108;3.074;2023-05-01T14:04:07;0.77;;;0.77;;
48813;SDS011;34634;44.108;3.074;2023-05-01T14:06:35;0.80;;;0.80;;
48813;SDS011;34634;44.108;3.074;2023-05-01T14:09:07;0.88;;;0.88;;
48813;SDS011;34634;44.108;3.074;2023-05-01T14:11:39;1.00;;;0.65;;
48813;SDS011;34634;44.108;3.074;2023-05-01T14:14:06;1.05;;;0.90;;
48813;SDS011;34634;44.108;3.074;2023-05-01T14:16:32;2.47;;;0.80;;
48813;SDS011;34634;44.108;3.074;2023-05-01T14:18:59;1.50;;;0.88;;
48813;SDS011;34634;44.108;3.074;2023-05-01T14:21:25;0.90;;;0.70;;
48813;SDS011;34634;44.108;3.074;2023-05-01T14:23:52;1.73;;;0.60;;
48813;SDS011;34634;44.108;3.074;2023-05-01T14:26:20;2.78;;;0.70;;
48813;SDS011;34634;44.108;3.074;2023-05-01T14:28:48;2.33;;;0.70;;
48813;SDS011;34634;44.108;3.074;2023-05-01T14:31:24;0.70;;;0.70;;
48813;SDS011;34634;44.108;3.074;2023-05-01T14:33:52;0.90;;;0.70;;
48813;SDS011;34634;44.108;3.074;2023-05-01T14:36:19;2.45;;;0.77;;
48813;SDS011;34634;44.108;3.074;2023-05-01T14:38:45;4.18;;;0.75;;
48813;SDS011;34634;44.108;3.074;2023-05-01T14:41:13;1.38;;;0.70;;
48813;SDS011;34634;44.108;3.074;2023-05-01T14:43:40;3.97;;;0.90;;
48813;SDS011;34634;44.108;3.074;2023-05-01T14:46:10;1.98;;;0.95;;
48813;SDS011;34634;44.108;3.074;2023-05-01T14:48:36;1.40;;;1.20;;
48813;SDS011;34634;44.108;3.074;2023-05-01T14:51:09;1.25;;;0.90;;
48813;SDS011;34634;44.108;3.074;2023-05-01T14:53:38;0.90;;;0.52;;
48813;SDS011;34634;44.108;3.074;2023-05-01T14:56:06;1.17;;;0.60;;
48813;SDS011;34634;44.108;3.074;2023-05-01T14:58:33;0.70;;;0.40;;
48813;SDS011;34634;44.108;3.074;2023-05-01T15:00:59;0.65;;;0.60;;
48813;SDS011;34634;44.108;3.074;2023-05-01T15:03:26;1.00;;;0.55;;
48813;SDS011;34634;44.108;3.074;2023-05-01T15:05:53;1.55;;;0.55;;
48813;SDS011;34634;44.108;3.074;2023-05-01T15:08:21;0.77;;;0.50;;
48813;SDS011;34634;44.108;3.074;2023-05-01T15:10:48;2.05;;;0.70;;
48813;SDS011;34634;44.108;3.074;2023-05-01T15:13:14;0.65;;;0.63;;
48813;SDS011;34634;44.108;3.074;2023-05-01T15:15:41;1.58;;;0.70;;
48813;SDS011;34634;44.108;3.074;2023-05-01T15:18:07;0.60;;;0.60;;
48813;SDS011;34634;44.108;3.074;2023-05-01T15:20:33;0.90;;;0.60;;
48813;SDS011;34634;44.108;3.074;2023-05-01T15:23:00;0.47;;;0.47;;
48813;SDS011;34634;44.108;3.074;2023-05-01T15:25:26;0.88;;;0.50;;